Kirkland, WA

3:03 PM PDT on September 04, 2015 (GMT -0700)
West of Market | | Change Station
CLOSE
Current Station
Personal Weather Station
Location: Kirkland, WA
Elevation: 110 ft
Nearby Weather Stations

Elev 110 ft 47.69 °N, 122.21 °W | Updated 3 seconds ago

Overcast
Overcast
--
Feels Like --
N
-
Wind Variable Wind from North

Today
High -- | Low -- °F
--% Chance of Precip.
Yesterday
High -- | Low -- °F
Precip. -- in
6:31 AM 7:43 PM
Waning Gibbous, 55% visible
Pressure 29.99 in
Visibility 10.0 miles
Clouds Scattered Clouds 2800 ft
Overcast 3500 ft
Dew Point Not available.
Humidity Not available.
Rainfall 0.00 in
Snow Depth Not available.
UV 2 out of 12
Pollen 3.00 out of 12
Air Quality Not available.
Flu Activity Not available.
METAR KBFI 042153Z VRB03KT 10SM SCT028 OVC035 17/08 A2999 RMK AO2 SLP155 T01720078
Pressure 29.99 in
Visibility 10.0 miles
Clouds Scattered Clouds 2800 ft
Overcast 3500 ft
Dew Point Not available.
Humidity Not available.
Rainfall 0.00 in
Snow Depth Not available.
UV 2 out of 12
Pollen 3.00 out of 12
Air Quality Not available.
Flu Activity Not available.
METAR KBFI 042153Z VRB03KT 10SM SCT028 OVC035 17/08 A2999 RMK AO2 SLP155 T01720078

10-Day Weather Forecast

×

Almanac

Astronomy

Sep. 04, 2015 Rise Set
Actual Time
Civil Twilight
Nautical Twilight
Astronomical Twilight
Moon
Length of Visible Light
Length of Day
Tomorrow will be .
, % of the Moon is Illuminated

Today's Extremes

State Highs State Lows

Community

WunderPhotos

Upload Photos

1,852,305 photos uploaded!

WunderBlogs® & News

Nearby

Air Quality

  Air Quality AQ Index Pollutant
Not available.

Snow Depth

Station Depth Elevation

Earthquake Activity

City Distance Mag. Time & Date
Minimum magnitude displayed is 2.5.

Coastal Water Temperatures

Place Temperature

Stations

Nearby Weather Stations

Station Location Temp. Windchill Dew Point Humidity Wind Precip. Elev Updated Type